Las Cruces International Airport
KLRU : now visible

Airfield :











YOU CAN JOIN US ON...

 
LOGIN :

Register | Disclaimer

   EN    FR    IT 

 









Legend :    VFR   Marginal VFR   IFR   Intensive IFR   Very Intensive IFR
Visi :
Ceiling :
>= 8 km
>= 3000ft
5 to 8 km
1000 to 3000 ft
1500m to 5 km
500 to 1000 ft
800 to 1500m
200 to 500 ft
< 800m
< 200 ft
Symbols :   Thunderstorms  Fog  Heavy snow  Heavy precipitations  Wind > 20 kt






- Airport Elevation : 4456 ft
- IATA code : LRU


KLRU - Las Cruces International

CURRENT METAR :
  • 120335Z AUTO 29005KT 10SM CLR 04/03 A3024 RMK AO2 T00370033

EXPIRED METARs :
  • 120315Z AUTO 00000KT 10SM CLR 04/02 A3023 RMK AO2 T00410021
  • 120255Z AUTO 00000KT 10SM CLR 05/04 A3023 RMK AO2 T00460038
  • 120235Z AUTO 00000KT 10SM CLR 04/04 A3023 RMK AO2 T00420042
  • 120215Z AUTO 00000KT 10SM CLR 05/03 A3023 RMK AO2 T00460033
  • 120155Z AUTO 00000KT 10SM CLR 06/03 A3023 RMK AO2 T00550034
  • 120135Z AUTO 00000KT 10SM CLR 06/04 A3023 RMK AO2 T00570036
  • 120115Z AUTO 00000KT 10SM CLR 06/04 A3023 RMK AO2 T00600038
  • 120055Z AUTO 00000KT 10SM CLR 06/04 A3022 RMK AO2 T00640039

TAF KLRU
Valid from the 12 at 00:00 until the 13 at 00:00 UTC


112330Z 1200/1224 17005KT P6SM BKN250
FM120500 VRB03KT P6SM FEW045
FM120900 VRB04KT 5SM BR FEW015 FEW250
FM121500 25006KT P6SM FEW250



MET'MAP, your aeronautical weather chart ! - Copyright ORBIFLY December 2007 - Disclaimer

ORBIFLY MET'MAP TEAM :

Programming & Development : Alexandra Zaïnal
Concept & original design : Baudouin d'Aumeries
Assistance for programming : Marc-Olivier Méhu
Technical & hardware support : Manuel Goepfert

Contact : metmap@orbifly.com




SOURCES & CREDITS :

   NOAA       Earth
Advisory